sensor_id;sensor_type;location;lat;lon;timestamp;temperature;humidity
25718;DHT22;13574;52.040;5.692;2023-07-13T00:02:10;23.20;92.70
25718;DHT22;13574;52.040;5.692;2023-07-13T00:04:41;23.10;92.80
25718;DHT22;13574;52.040;5.692;2023-07-13T00:07:10;23.10;92.80
25718;DHT22;13574;52.040;5.692;2023-07-13T00:09:39;23.10;92.80
25718;DHT22;13574;52.040;5.692;2023-07-13T00:12:33;23.00;92.60
25718;DHT22;13574;52.040;5.692;2023-07-13T00:15:21;22.80;92.70
25718;DHT22;13574;52.040;5.692;2023-07-13T00:18:06;22.80;92.90
25718;DHT22;13574;52.040;5.692;2023-07-13T00:20:49;22.80;92.80
25718;DHT22;13574;52.040;5.692;2023-07-13T00:23:23;22.90;92.80
25718;DHT22;13574;52.040;5.692;2023-07-13T00:25:54;22.80;92.90
25718;DHT22;13574;52.040;5.692;2023-07-13T00:28:22;22.70;93.00
25718;DHT22;13574;52.040;5.692;2023-07-13T00:30:50;22.50;93.00
25718;DHT22;13574;52.040;5.692;2023-07-13T00:33:21;22.50;93.00
25718;DHT22;13574;52.040;5.692;2023-07-13T00:35:54;22.30;93.20
25718;DHT22;13574;52.040;5.692;2023-07-13T00:38:35;22.20;93.30
25718;DHT22;13574;52.040;5.692;2023-07-13T00:41:04;22.40;93.40
25718;DHT22;13574;52.040;5.692;2023-07-13T00:43:50;22.40;93.40
25718;DHT22;13574;52.040;5.692;2023-07-13T00:46:39;22.40;93.30
25718;DHT22;13574;52.040;5.692;2023-07-13T00:49:25;22.50;93.20
25718;DHT22;13574;52.040;5.692;2023-07-13T00:52:02;22.50;93.20
25718;DHT22;13574;52.040;5.692;2023-07-13T00:54:38;22.30;93.30
25718;DHT22;13574;52.040;5.692;2023-07-13T00:57:17;22.20;93.50
25718;DHT22;13574;52.040;5.692;2023-07-13T00:59:52;22.20;93.50
25718;DHT22;13574;52.040;5.692;2023-07-13T01:02:19;22.20;93.60
25718;DHT22;13574;52.040;5.692;2023-07-13T01:04:53;22.10;93.50
25718;DHT22;13574;52.040;5.692;2023-07-13T01:07:18;22.10;93.80
25718;DHT22;13574;52.040;5.692;2023-07-13T01:09:47;22.00;93.70
25718;DHT22;13574;52.040;5.692;2023-07-13T01:12:12;22.00;93.80
25718;DHT22;13574;52.040;5.692;2023-07-13T01:14:39;21.90;93.90
25718;DHT22;13574;52.040;5.692;2023-07-13T01:17:09;22.00;94.00
25718;DHT22;13574;52.040;5.692;2023-07-13T01:19:47;21.90;93.90
25718;DHT22;13574;52.040;5.692;2023-07-13T01:22:15;21.80;94.20
25718;DHT22;13574;52.040;5.692;2023-07-13T01:24:48;21.90;94.10
25718;DHT22;13574;52.040;5.692;2023-07-13T01:27:16;21.80;94.20
25718;DHT22;13574;52.040;5.692;2023-07-13T01:29:45;21.80;94.40
25718;DHT22;13574;52.040;5.692;2023-07-13T01:32:23;21.80;94.40
25718;DHT22;13574;52.040;5.692;2023-07-13T01:35:00;21.90;94.40
25718;DHT22;13574;52.040;5.692;2023-07-13T01:37:35;21.70;94.30
25718;DHT22;13574;52.040;5.692;2023-07-13T01:40:04;21.80;94.30
25718;DHT22;13574;52.040;5.692;2023-07-13T01:42:32;21.70;94.70
25718;DHT22;13574;52.040;5.692;2023-07-13T01:45:00;21.60;94.70
25718;DHT22;13574;52.040;5.692;2023-07-13T01:47:26;21.70;94.40
25718;DHT22;13574;52.040;5.692;2023-07-13T01:50:03;21.70;95.10
25718;DHT22;13574;52.040;5.692;2023-07-13T01:52:43;21.80;94.60
25718;DHT22;13574;52.040;5.692;2023-07-13T01:55:24;21.80;94.80
25718;DHT22;13574;52.040;5.692;2023-07-13T01:57:52;21.80;94.70
25718;DHT22;13574;52.040;5.692;2023-07-13T02:00:38;21.80;95.00
25718;DHT22;13574;52.040;5.692;2023-07-13T02:03:23;21.80;94.60
25718;DHT22;13574;52.040;5.692;2023-07-13T02:05:49;21.70;94.70
25718;DHT22;13574;52.040;5.692;2023-07-13T02:08:18;21.70;94.80
25718;DHT22;13574;52.040;5.692;2023-07-13T02:10:58;21.80;94.80
25718;DHT22;13574;52.040;5.692;2023-07-13T02:13:34;21.80;94.60
25718;DHT22;13574;52.040;5.692;2023-07-13T02:16:04;21.80;94.60
25718;DHT22;13574;52.040;5.692;2023-07-13T02:18:33;21.50;95.00
25718;DHT22;13574;52.040;5.692;2023-07-13T02:21:01;21.50;95.20
25718;DHT22;13574;52.040;5.692;2023-07-13T02:23:35;21.50;95.30
25718;DHT22;13574;52.040;5.692;2023-07-13T02:28:36;21.60;95.30
25718;DHT22;13574;52.040;5.692;2023-07-13T02:31:15;21.60;95.20
25718;DHT22;13574;52.040;5.692;2023-07-13T02:33:44;21.70;95.10
25718;DHT22;13574;52.040;5.692;2023-07-13T02:36:24;21.60;95.30
25718;DHT22;13574;52.040;5.692;2023-07-13T02:38:56;21.60;95.30
25718;DHT22;13574;52.040;5.692;2023-07-13T02:41:29;21.70;95.30
25718;DHT22;13574;52.040;5.692;2023-07-13T02:43:57;21.70;95.40
25718;DHT22;13574;52.040;5.692;2023-07-13T02:46:36;21.60;95.40
25718;DHT22;13574;52.040;5.692;2023-07-13T02:49:03;21.40;95.60
25718;DHT22;13574;52.040;5.692;2023-07-13T02:51:39;21.40;95.70
25718;DHT22;13574;52.040;5.692;2023-07-13T02:54:05;21.50;95.60
25718;DHT22;13574;52.040;5.692;2023-07-13T02:56:34;21.50;95.60
25718;DHT22;13574;52.040;5.692;2023-07-13T02:59:10;21.40;95.80
25718;DHT22;13574;52.040;5.692;2023-07-13T03:01:43;21.10;96.10
25718;DHT22;13574;52.040;5.692;2023-07-13T03:04:26;21.20;96.60
25718;DHT22;13574;52.040;5.692;2023-07-13T03:06:54;21.20;96.20
25718;DHT22;13574;52.040;5.692;2023-07-13T03:09:23;21.10;96.50
25718;DHT22;13574;52.040;5.692;2023-07-13T03:11:58;21.20;96.40
25718;DHT22;13574;52.040;5.692;2023-07-13T03:14:28;21.20;96.50
25718;DHT22;13574;52.040;5.692;2023-07-13T03:16:59;21.10;96.80
25718;DHT22;13574;52.040;5.692;2023-07-13T03:19:28;21.20;96.70
25718;DHT22;13574;52.040;5.692;2023-07-13T03:22:02;21.10;96.70
25718;DHT22;13574;52.040;5.692;2023-07-13T03:24:45;21.00;96.90
25718;DHT22;13574;52.040;5.692;2023-07-13T03:27:17;21.10;96.90
25718;DHT22;13574;52.040;5.692;2023-07-13T03:30:08;21.10;96.90
25718;DHT22;13574;52.040;5.692;2023-07-13T03:32:34;21.00;97.00
25718;DHT22;13574;52.040;5.692;2023-07-13T03:34:59;21.00;97.10
25718;DHT22;13574;52.040;5.692;2023-07-13T03:37:37;21.00;97.20
25718;DHT22;13574;52.040;5.692;2023-07-13T03:40:13;21.00;97.20
25718;DHT22;13574;52.040;5.692;2023-07-13T03:42:41;21.10;97.20
25718;DHT22;13574;52.040;5.692;2023-07-13T03:45:12;21.20;97.20
25718;DHT22;13574;52.040;5.692;2023-07-13T03:47:48;21.20;97.20
25718;DHT22;13574;52.040;5.692;2023-07-13T03:50:24;21.10;97.20
25718;DHT22;13574;52.040;5.692;2023-07-13T03:52:49;21.10;97.30
25718;DHT22;13574;52.040;5.692;2023-07-13T03:55:15;21.10;97.60
25718;DHT22;13574;52.040;5.692;2023-07-13T03:57:43;21.20;97.40
25718;DHT22;13574;52.040;5.692;2023-07-13T04:00:09;21.20;97.40
25718;DHT22;13574;52.040;5.692;2023-07-13T04:02:39;21.20;97.50
25718;DHT22;13574;52.040;5.692;2023-07-13T04:05:15;21.20;97.60
25718;DHT22;13574;52.040;5.692;2023-07-13T04:07:50;21.20;97.70
25718;DHT22;13574;52.040;5.692;2023-07-13T04:10:15;21.20;97.70
25718;DHT22;13574;52.040;5.692;2023-07-13T04:12:41;21.30;97.60
25718;DHT22;13574;52.040;5.692;2023-07-13T04:15:18;21.40;97.60
25718;DHT22;13574;52.040;5.692;2023-07-13T04:17:51;21.20;97.70
25718;DHT22;13574;52.040;5.692;2023-07-13T04:20:17;21.40;97.70
25718;DHT22;13574;52.040;5.692;2023-07-13T04:22:42;21.30;97.80
25718;DHT22;13574;52.040;5.692;2023-07-13T04:25:08;21.40;97.60
25718;DHT22;13574;52.040;5.692;2023-07-13T04:27:39;21.50;97.60
25718;DHT22;13574;52.040;5.692;2023-07-13T04:30:06;21.50;97.80
25718;DHT22;13574;52.040;5.692;2023-07-13T04:32:47;21.60;97.60
25718;DHT22;13574;52.040;5.692;2023-07-13T04:35:18;21.70;97.50
25718;DHT22;13574;52.040;5.692;2023-07-13T04:37:46;21.60;97.60
25718;DHT22;13574;52.040;5.692;2023-07-13T04:40:13;21.40;97.80
25718;DHT22;13574;52.040;5.692;2023-07-13T04:42:38;21.50;98.30
25718;DHT22;13574;52.040;5.692;2023-07-13T04:45:15;21.60;97.80
25718;DHT22;13574;52.040;5.692;2023-07-13T04:47:55;21.70;97.80
25718;DHT22;13574;52.040;5.692;2023-07-13T04:50:20;21.80;97.80
25718;DHT22;13574;52.040;5.692;2023-07-13T04:56:11;21.90;97.90
25718;DHT22;13574;52.040;5.692;2023-07-13T04:58:38;21.90;97.70
25718;DHT22;13574;52.040;5.692;2023-07-13T05:01:06;22.10;97.50
25718;DHT22;13574;52.040;5.692;2023-07-13T05:03:33;22.10;97.50
25718;DHT22;13574;52.040;5.692;2023-07-13T05:06:03;22.00;97.70
25718;DHT22;13574;52.040;5.692;2023-07-13T05:08:29;22.10;97.50
25718;DHT22;13574;52.040;5.692;2023-07-13T05:26:24;22.20;97.80
25718;DHT22;13574;52.040;5.692;2023-07-13T05:28:49;22.20;97.90
25718;DHT22;13574;52.040;5.692;2023-07-13T05:31:34;22.10;98.20
25718;DHT22;13574;52.040;5.692;2023-07-13T05:34:03;22.20;98.10
25718;DHT22;13574;52.040;5.692;2023-07-13T05:36:31;22.40;97.80
25718;DHT22;13574;52.040;5.692;2023-07-13T05:38:57;22.30;98.00
25718;DHT22;13574;52.040;5.692;2023-07-13T05:41:23;22.30;97.90
25718;DHT22;13574;52.040;5.692;2023-07-13T05:43:49;22.20;98.20
25718;DHT22;13574;52.040;5.692;2023-07-13T05:46:14;22.20;98.20
25718;DHT22;13574;52.040;5.692;2023-07-13T05:48:40;22.10;98.50
25718;DHT22;13574;52.040;5.692;2023-07-13T05:51:06;22.20;98.50
25718;DHT22;13574;52.040;5.692;2023-07-13T05:53:34;22.20;98.50
25718;DHT22;13574;52.040;5.692;2023-07-13T05:56:20;22.30;98.20
25718;DHT22;13574;52.040;5.692;2023-07-13T05:59:19;22.30;98.40
25718;DHT22;13574;52.040;5.692;2023-07-13T06:02:07;22.50;98.20
25718;DHT22;13574;52.040;5.692;2023-07-13T06:05:14;22.40;98.40
25718;DHT22;13574;52.040;5.692;2023-07-13T06:07:45;22.40;98.60
25718;DHT22;13574;52.040;5.692;2023-07-13T06:28:18;22.70;98.80
25718;DHT22;13574;52.040;5.692;2023-07-13T06:48:25;22.70;99.10
25718;DHT22;13574;52.040;5.692;2023-07-13T06:50:53;23.60;98.40
25718;DHT22;13574;52.040;5.692;2023-07-13T06:53:21;24.00;98.00
25718;DHT22;13574;52.040;5.692;2023-07-13T06:55:57;24.10;97.80
25718;DHT22;13574;52.040;5.692;2023-07-13T06:58:46;24.00;97.60
25718;DHT22;13574;52.040;5.692;2023-07-13T07:01:14;24.00;97.70
25718;DHT22;13574;52.040;5.692;2023-07-13T07:03:42;24.20;97.40
25718;DHT22;13574;52.040;5.692;2023-07-13T07:06:20;24.20;97.20
25718;DHT22;13574;52.040;5.692;2023-07-13T07:08:50;24.30;97.00
25718;DHT22;13574;52.040;5.692;2023-07-13T07:11:23;24.20;96.90
25718;DHT22;13574;52.040;5.692;2023-07-13T07:13:52;24.00;97.40
25718;DHT22;13574;52.040;5.692;2023-07-13T07:16:21;23.80;97.50
25718;DHT22;13574;52.040;5.692;2023-07-13T07:18:50;23.70;98.40
25718;DHT22;13574;52.040;5.692;2023-07-13T07:21:15;23.70;97.90
25718;DHT22;13574;52.040;5.692;2023-07-13T07:23:45;23.60;98.00
25718;DHT22;13574;52.040;5.692;2023-07-13T07:26:20;23.70;97.90
25718;DHT22;13574;52.040;5.692;2023-07-13T07:28:46;23.60;98.20
25718;DHT22;13574;52.040;5.692;2023-07-13T07:31:15;23.80;97.90
25718;DHT22;13574;52.040;5.692;2023-07-13T07:33:43;23.80;97.80
25718;DHT22;13574;52.040;5.692;2023-07-13T07:36:20;23.70;97.70
25718;DHT22;13574;52.040;5.692;2023-07-13T07:38:49;23.70;97.80
25718;DHT22;13574;52.040;5.692;2023-07-13T07:44:31;24.20;97.30
25718;DHT22;13574;52.040;5.692;2023-07-13T07:55:53;24.50;97.00
25718;DHT22;13574;52.040;5.692;2023-07-13T07:58:28;24.50;96.90
25718;DHT22;13574;52.040;5.692;2023-07-13T08:01:06;24.50;96.70
25718;DHT22;13574;52.040;5.692;2023-07-13T08:03:52;24.70;96.80
25718;DHT22;13574;52.040;5.692;2023-07-13T08:06:25;25.80;96.80
25718;DHT22;13574;52.040;5.692;2023-07-13T08:08:58;26.50;94.60
25718;DHT22;13574;52.040;5.692;2023-07-13T08:14:49;28.90;92.40
25718;DHT22;13574;52.040;5.692;2023-07-13T08:17:59;29.80;90.00
25718;DHT22;13574;52.040;5.692;2023-07-13T08:20:26;30.70;88.30
25718;DHT22;13574;52.040;5.692;2023-07-13T08:22:59;30.40;86.40
25718;DHT22;13574;52.040;5.692;2023-07-13T08:25:27;30.30;86.40
25718;DHT22;13574;52.040;5.692;2023-07-13T08:28:05;29.90;86.90
25718;DHT22;13574;52.040;5.692;2023-07-13T08:30:31;29.20;89.10
25718;DHT22;13574;52.040;5.692;2023-07-13T08:33:27;28.40;90.90
25718;DHT22;13574;52.040;5.692;2023-07-13T08:39:05;27.40;92.60
25718;DHT22;13574;52.040;5.692;2023-07-13T08:41:36;27.80;94.10
25718;DHT22;13574;52.040;5.692;2023-07-13T08:44:11;28.70;92.80
25718;DHT22;13574;52.040;5.692;2023-07-13T08:46:54;30.20;90.70
25718;DHT22;13574;52.040;5.692;2023-07-13T08:49:27;32.40;86.80
25718;DHT22;13574;52.040;5.692;2023-07-13T08:52:24;33.30;83.60
25718;DHT22;13574;52.040;5.692;2023-07-13T08:58:13;36.40;75.90
25718;DHT22;13574;52.040;5.692;2023-07-13T09:04:25;36.90;70.90
25718;DHT22;13574;52.040;5.692;2023-07-13T09:07:04;35.80;70.40
25718;DHT22;13574;52.040;5.692;2023-07-13T09:09:59;34.70;71.40
25718;DHT22;13574;52.040;5.692;2023-07-13T09:17:59;31.90;75.90
25718;DHT22;13574;52.040;5.692;2023-07-13T09:20:35;31.80;76.40
25718;DHT22;13574;52.040;5.692;2023-07-13T09:23:09;31.30;76.50
25718;DHT22;13574;52.040;5.692;2023-07-13T09:25:41;30.70;77.70
25718;DHT22;13574;52.040;5.692;2023-07-13T09:28:28;30.20;78.90
25718;DHT22;13574;52.040;5.692;2023-07-13T09:31:10;29.70;80.20
25718;DHT22;13574;52.040;5.692;2023-07-13T09:33:42;29.30;82.50
25718;DHT22;13574;52.040;5.692;2023-07-13T09:36:24;29.00;82.40
25718;DHT22;13574;52.040;5.692;2023-07-13T09:41:48;31.10;80.20
25718;DHT22;13574;52.040;5.692;2023-07-13T09:44:37;34.30;76.30
25718;DHT22;13574;52.040;5.692;2023-07-13T09:47:33;37.20;69.50
25718;DHT22;13574;52.040;5.692;2023-07-13T09:50:16;39.50;66.50
25718;DHT22;13574;52.040;5.692;2023-07-13T09:52:57;41.70;62.70
25718;DHT22;13574;52.040;5.692;2023-07-13T09:56:00;42.10;60.80
25718;DHT22;13574;52.040;5.692;2023-07-13T09:58:35;43.50;59.60
25718;DHT22;13574;52.040;5.692;2023-07-13T10:01:07;44.20;57.90
25718;DHT22;13574;52.040;5.692;2023-07-13T10:03:51;44.30;57.20
25718;DHT22;13574;52.040;5.692;2023-07-13T10:06:48;44.10;57.70
25718;DHT22;13574;52.040;5.692;2023-07-13T10:09:22;44.30;56.60
25718;DHT22;13574;52.040;5.692;2023-07-13T10:11:58;43.50;57.10
25718;DHT22;13574;52.040;5.692;2023-07-13T10:14:36;43.10;58.30
25718;DHT22;13574;52.040;5.692;2023-07-13T10:17:06;43.40;57.20
25718;DHT22;13574;52.040;5.692;2023-07-13T10:19:47;42.00;57.70
25718;DHT22;13574;52.040;5.692;2023-07-13T10:25:15;38.60;64.10
25718;DHT22;13574;52.040;5.692;2023-07-13T10:27:45;37.70;66.40
25718;DHT22;13574;52.040;5.692;2023-07-13T10:30:35;38.70;66.90
25718;DHT22;13574;52.040;5.692;2023-07-13T10:33:13;39.90;65.00
25718;DHT22;13574;52.040;5.692;2023-07-13T10:35:52;41.60;62.30
25718;DHT22;13574;52.040;5.692;2023-07-13T10:38:23;39.90;61.80
25718;DHT22;13574;52.040;5.692;2023-07-13T10:41:05;39.30;62.80
25718;DHT22;13574;52.040;5.692;2023-07-13T10:43:45;37.40;64.40
25718;DHT22;13574;52.040;5.692;2023-07-13T10:46:22;35.40;67.80
25718;DHT22;13574;52.040;5.692;2023-07-13T10:49:03;33.90;70.00
25718;DHT22;13574;52.040;5.692;2023-07-13T10:51:39;32.80;72.10
25718;DHT22;13574;52.040;5.692;2023-07-13T10:54:11;31.30;73.30
25718;DHT22;13574;52.040;5.692;2023-07-13T10:56:42;30.70;76.20
25718;DHT22;13574;52.040;5.692;2023-07-13T10:59:18;31.20;77.30
25718;DHT22;13574;52.040;5.692;2023-07-13T11:02:15;33.20;73.90
25718;DHT22;13574;52.040;5.692;2023-07-13T11:05:01;33.80;71.00
25718;DHT22;13574;52.040;5.692;2023-07-13T11:08:20;32.10;71.80
25718;DHT22;13574;52.040;5.692;2023-07-13T11:20:20;29.70;83.50
25718;DHT22;13574;52.040;5.692;2023-07-13T11:26:01;30.60;83.10
25718;DHT22;13574;52.040;5.692;2023-07-13T11:28:36;32.00;80.50
25718;DHT22;13574;52.040;5.692;2023-07-13T11:31:13;32.90;78.40
25718;DHT22;13574;52.040;5.692;2023-07-13T11:33:55;33.20;76.50
25718;DHT22;13574;52.040;5.692;2023-07-13T11:36:36;32.50;77.10
25718;DHT22;13574;52.040;5.692;2023-07-13T11:39:47;32.10;77.60
25718;DHT22;13574;52.040;5.692;2023-07-13T11:42:16;31.40;77.30
25718;DHT22;13574;52.040;5.692;2023-07-13T11:44:51;30.60;78.90
25718;DHT22;13574;52.040;5.692;2023-07-13T11:47:21;30.40;79.30
25718;DHT22;13574;52.040;5.692;2023-07-13T11:52:57;28.60;82.30
25718;DHT22;13574;52.040;5.692;2023-07-13T11:55:26;28.50;84.30
25718;DHT22;13574;52.040;5.692;2023-07-13T11:57:56;28.80;83.10
25718;DHT22;13574;52.040;5.692;2023-07-13T12:00:33;29.00;83.10
25718;DHT22;13574;52.040;5.692;2023-07-13T12:03:07;29.00;82.70
25718;DHT22;13574;52.040;5.692;2023-07-13T12:05:33;28.90;82.60
25718;DHT22;13574;52.040;5.692;2023-07-13T12:08:16;28.70;82.60
25718;DHT22;13574;52.040;5.692;2023-07-13T12:10:42;28.30;83.30
25718;DHT22;13574;52.040;5.692;2023-07-13T12:13:10;27.60;83.70
25718;DHT22;13574;52.040;5.692;2023-07-13T12:15:52;27.20;83.40
25718;DHT22;13574;52.040;5.692;2023-07-13T12:18:31;27.10;85.80
25718;DHT22;13574;52.040;5.692;2023-07-13T12:21:15;27.30;86.30
25718;DHT22;13574;52.040;5.692;2023-07-13T12:23:44;26.90;84.50
25718;DHT22;13574;52.040;5.692;2023-07-13T12:26:15;26.50;84.30
25718;DHT22;13574;52.040;5.692;2023-07-13T12:28:55;26.50;85.00
25718;DHT22;13574;52.040;5.692;2023-07-13T12:31:41;26.70;84.40
25718;DHT22;13574;52.040;5.692;2023-07-13T12:34:13;26.50;84.30
25718;DHT22;13574;52.040;5.692;2023-07-13T12:36:49;26.40;84.80
25718;DHT22;13574;52.040;5.692;2023-07-13T12:39:33;26.30;85.30
25718;DHT22;13574;52.040;5.692;2023-07-13T12:42:29;26.20;86.30
25718;DHT22;13574;52.040;5.692;2023-07-13T12:45:24;26.40;87.10
25718;DHT22;13574;52.040;5.692;2023-07-13T12:47:55;26.40;87.40
25718;DHT22;13574;52.040;5.692;2023-07-13T12:50:30;26.30;88.30
25718;DHT22;13574;52.040;5.692;2023-07-13T12:53:02;26.50;87.80
25718;DHT22;13574;52.040;5.692;2023-07-13T12:55:54;26.70;87.70
25718;DHT22;13574;52.040;5.692;2023-07-13T12:58:39;26.70;88.10
25718;DHT22;13574;52.040;5.692;2023-07-13T13:01:17;26.30;88.90
25718;DHT22;13574;52.040;5.692;2023-07-13T13:03:51;26.20;89.80
25718;DHT22;13574;52.040;5.692;2023-07-13T13:06:31;26.40;90.10
25718;DHT22;13574;52.040;5.692;2023-07-13T13:09:05;26.10;90.30
25718;DHT22;13574;52.040;5.692;2023-07-13T13:11:40;26.50;90.30
25718;DHT22;13574;52.040;5.692;2023-07-13T13:14:07;26.80;89.20
25718;DHT22;13574;52.040;5.692;2023-07-13T13:16:44;26.90;89.40
25718;DHT22;13574;52.040;5.692;2023-07-13T13:19:36;27.20;89.00
25718;DHT22;13574;52.040;5.692;2023-07-13T13:22:17;27.40;88.50
25718;DHT22;13574;52.040;5.692;2023-07-13T13:24:53;27.30;87.60
25718;DHT22;13574;52.040;5.692;2023-07-13T13:27:28;27.20;87.10
25718;DHT22;13574;52.040;5.692;2023-07-13T13:29:57;27.40;87.90
25718;DHT22;13574;52.040;5.692;2023-07-13T13:32:27;27.30;84.80
25718;DHT22;13574;52.040;5.692;2023-07-13T13:34:58;27.30;87.00
25718;DHT22;13574;52.040;5.692;2023-07-13T13:37:30;27.50;86.10
25718;DHT22;13574;52.040;5.692;2023-07-13T13:39:59;27.90;85.50
25718;DHT22;13574;52.040;5.692;2023-07-13T13:42:28;27.70;83.50
25718;DHT22;13574;52.040;5.692;2023-07-13T13:44:56;27.50;83.60
25718;DHT22;13574;52.040;5.692;2023-07-13T13:47:32;27.30;84.30
25718;DHT22;13574;52.040;5.692;2023-07-13T13:50:01;27.10;84.40
25718;DHT22;13574;52.040;5.692;2023-07-13T13:52:30;27.10;83.80
25718;DHT22;13574;52.040;5.692;2023-07-13T13:54:55;27.30;83.40
25718;DHT22;13574;52.040;5.692;2023-07-13T13:57:34;27.50;82.70
25718;DHT22;13574;52.040;5.692;2023-07-13T14:00:18;27.40;81.90
25718;DHT22;13574;52.040;5.692;2023-07-13T14:02:50;27.40;82.30
25718;DHT22;13574;52.040;5.692;2023-07-13T14:05:30;27.40;81.10
25718;DHT22;13574;52.040;5.692;2023-07-13T14:07:58;27.60;81.20
25718;DHT22;13574;52.040;5.692;2023-07-13T14:10:33;27.10;79.70
25718;DHT22;13574;52.040;5.692;2023-07-13T14:13:01;26.90;80.20
25718;DHT22;13574;52.040;5.692;2023-07-13T14:15:35;27.20;81.10
25718;DHT22;13574;52.040;5.692;2023-07-13T14:18:03;27.00;81.30
25718;DHT22;13574;52.040;5.692;2023-07-13T14:20:29;27.30;81.60
25718;DHT22;13574;52.040;5.692;2023-07-13T14:22:58;27.00;81.20
25718;DHT22;13574;52.040;5.692;2023-07-13T14:25:52;27.10;80.40
25718;DHT22;13574;52.040;5.692;2023-07-13T14:28:26;27.30;80.50
25718;DHT22;13574;52.040;5.692;2023-07-13T14:30:54;27.60;80.10
25718;DHT22;13574;52.040;5.692;2023-07-13T14:33:20;27.80;79.50
25718;DHT22;13574;52.040;5.692;2023-07-13T14:35:51;27.70;79.40
25718;DHT22;13574;52.040;5.692;2023-07-13T14:38:20;27.20;79.20
25718;DHT22;13574;52.040;5.692;2023-07-13T14:40:49;27.10;80.10
25718;DHT22;13574;52.040;5.692;2023-07-13T14:43:18;27.10;79.10
25718;DHT22;13574;52.040;5.692;2023-07-13T14:45:50;27.30;79.50
25718;DHT22;13574;52.040;5.692;2023-07-13T14:48:27;27.50;79.70
25718;DHT22;13574;52.040;5.692;2023-07-13T14:50:57;27.80;79.70
25718;DHT22;13574;52.040;5.692;2023-07-13T14:53:36;27.50;79.50
25718;DHT22;13574;52.040;5.692;2023-07-13T14:56:12;27.30;80.10
25718;DHT22;13574;52.040;5.692;2023-07-13T14:58:48;27.50;80.60
25718;DHT22;13574;52.040;5.692;2023-07-13T15:01:15;27.60;80.20
25718;DHT22;13574;52.040;5.692;2023-07-13T15:03:51;27.60;80.10
25718;DHT22;13574;52.040;5.692;2023-07-13T15:06:20;27.90;80.50
25718;DHT22;13574;52.040;5.692;2023-07-13T15:08:53;27.40;79.40
25718;DHT22;13574;52.040;5.692;2023-07-13T15:11:22;27.60;80.20
25718;DHT22;13574;52.040;5.692;2023-07-13T15:13:50;27.60;79.10
25718;DHT22;13574;52.040;5.692;2023-07-13T15:16:22;27.60;79.50
25718;DHT22;13574;52.040;5.692;2023-07-13T15:18:51;27.60;80.40
25718;DHT22;13574;52.040;5.692;2023-07-13T15:21:26;27.20;78.40
25718;DHT22;13574;52.040;5.692;2023-07-13T15:24:00;27.00;79.40
25718;DHT22;13574;52.040;5.692;2023-07-13T15:26:28;27.10;80.60
25718;DHT22;13574;52.040;5.692;2023-07-13T15:28:55;27.00;82.50
25718;DHT22;13574;52.040;5.692;2023-07-13T15:31:25;26.90;83.00
25718;DHT22;13574;52.040;5.692;2023-07-13T15:34:11;27.00;83.80
25718;DHT22;13574;52.040;5.692;2023-07-13T15:36:40;27.20;84.00
25718;DHT22;13574;52.040;5.692;2023-07-13T15:39:16;27.20;84.00
25718;DHT22;13574;52.040;5.692;2023-07-13T15:41:42;27.20;84.90
25718;DHT22;13574;52.040;5.692;2023-07-13T15:44:26;27.20;83.60
25718;DHT22;13574;52.040;5.692;2023-07-13T15:47:01;27.10;83.70
25718;DHT22;13574;52.040;5.692;2023-07-13T15:49:28;27.20;83.70
25718;DHT22;13574;52.040;5.692;2023-07-13T15:51:54;27.20;83.00
25718;DHT22;13574;52.040;5.692;2023-07-13T15:54:25;26.80;84.10
25718;DHT22;13574;52.040;5.692;2023-07-13T15:56:53;27.00;83.90
25718;DHT22;13574;52.040;5.692;2023-07-13T15:59:20;27.20;84.00
25718;DHT22;13574;52.040;5.692;2023-07-13T16:01:46;27.30;83.60
25718;DHT22;13574;52.040;5.692;2023-07-13T16:04:17;27.30;82.70
25718;DHT22;13574;52.040;5.692;2023-07-13T16:06:51;26.80;81.40
25718;DHT22;13574;52.040;5.692;2023-07-13T16:09:21;27.00;82.00
25718;DHT22;13574;52.040;5.692;2023-07-13T16:11:49;27.00;81.60
25718;DHT22;13574;52.040;5.692;2023-07-13T16:14:15;26.80;82.30
25718;DHT22;13574;52.040;5.692;2023-07-13T16:16:42;26.90;83.40
25718;DHT22;13574;52.040;5.692;2023-07-13T16:19:09;26.90;83.50
25718;DHT22;13574;52.040;5.692;2023-07-13T16:22:01;26.80;84.30
25718;DHT22;13574;52.040;5.692;2023-07-13T16:24:41;26.90;85.00
25718;DHT22;13574;52.040;5.692;2023-07-13T16:27:23;27.00;84.90
25718;DHT22;13574;52.040;5.692;2023-07-13T16:33:23;27.00;83.90
25718;DHT22;13574;52.040;5.692;2023-07-13T16:35:49;26.80;84.50
25718;DHT22;13574;52.040;5.692;2023-07-13T16:38:17;26.80;84.60
25718;DHT22;13574;52.040;5.692;2023-07-13T16:40:47;26.90;84.80
25718;DHT22;13574;52.040;5.692;2023-07-13T16:43:15;26.90;84.90
25718;DHT22;13574;52.040;5.692;2023-07-13T16:45:43;27.10;85.50
25718;DHT22;13574;52.040;5.692;2023-07-13T16:48:45;27.00;85.40
25718;DHT22;13574;52.040;5.692;2023-07-13T16:51:13;26.90;85.60
25718;DHT22;13574;52.040;5.692;2023-07-13T16:53:44;26.70;87.00
25718;DHT22;13574;52.040;5.692;2023-07-13T16:56:18;26.60;87.50
25718;DHT22;13574;52.040;5.692;2023-07-13T16:58:44;26.80;85.70
25718;DHT22;13574;52.040;5.692;2023-07-13T17:01:11;26.60;84.40
25718;DHT22;13574;52.040;5.692;2023-07-13T17:03:42;26.60;83.90
25718;DHT22;13574;52.040;5.692;2023-07-13T17:06:27;26.60;82.40
25718;DHT22;13574;52.040;5.692;2023-07-13T17:08:54;26.50;80.80
25718;DHT22;13574;52.040;5.692;2023-07-13T17:11:22;26.60;81.70
25718;DHT22;13574;52.040;5.692;2023-07-13T17:13:54;26.50;80.90
25718;DHT22;13574;52.040;5.692;2023-07-13T17:16:20;26.70;81.10
25718;DHT22;13574;52.040;5.692;2023-07-13T17:18:48;26.50;81.20
25718;DHT22;13574;52.040;5.692;2023-07-13T17:21:24;26.40;81.80
25718;DHT22;13574;52.040;5.692;2023-07-13T17:23:50;26.60;81.20
25718;DHT22;13574;52.040;5.692;2023-07-13T17:29:11;26.50;81.50
25718;DHT22;13574;52.040;5.692;2023-07-13T17:31:37;26.40;81.10
25718;DHT22;13574;52.040;5.692;2023-07-13T17:34:03;26.30;81.40
25718;DHT22;13574;52.040;5.692;2023-07-13T17:43:36;26.50;81.90
25718;DHT22;13574;52.040;5.692;2023-07-13T17:46:24;26.40;81.80
25718;DHT22;13574;52.040;5.692;2023-07-13T17:49:11;26.50;82.30
25718;DHT22;13574;52.040;5.692;2023-07-13T17:51:39;26.40;82.20
25718;DHT22;13574;52.040;5.692;2023-07-13T17:54:19;26.40;81.90
25718;DHT22;13574;52.040;5.692;2023-07-13T17:56:45;26.20;82.50
25718;DHT22;13574;52.040;5.692;2023-07-13T17:59:11;26.30;83.50
25718;DHT22;13574;52.040;5.692;2023-07-13T18:01:48;26.40;83.80
25718;DHT22;13574;52.040;5.692;2023-07-13T18:04:18;26.40;83.70
25718;DHT22;13574;52.040;5.692;2023-07-13T18:06:50;26.30;82.70
25718;DHT22;13574;52.040;5.692;2023-07-13T18:09:26;26.00;83.40
25718;DHT22;13574;52.040;5.692;2023-07-13T18:11:57;26.00;84.00
25718;DHT22;13574;52.040;5.692;2023-07-13T18:14:25;26.10;83.40
25718;DHT22;13574;52.040;5.692;2023-07-13T18:17:13;26.20;83.90